sensor_id;sensor_type;location;lat;lon;timestamp;P1;durP1;ratioP1;P2;durP2;ratioP2
27003;SDS011;14546;47.590;19.022;2023-08-06T00:02:03;10.43;;;9.13;;
27003;SDS011;14546;47.590;19.022;2023-08-06T00:04:30;12.77;;;8.82;;
27003;SDS011;14546;47.590;19.022;2023-08-06T00:06:56;13.18;;;9.07;;
27003;SDS011;14546;47.590;19.022;2023-08-06T00:09:22;12.80;;;9.10;;
27003;SDS011;14546;47.590;19.022;2023-08-06T00:11:48;13.07;;;9.13;;
27003;SDS011;14546;47.590;19.022;2023-08-06T00:14:15;15.98;;;9.82;;
27003;SDS011;14546;47.590;19.022;2023-08-06T00:16:43;11.68;;;8.98;;
27003;SDS011;14546;47.590;19.022;2023-08-06T00:19:09;17.23;;;9.27;;
27003;SDS011;14546;47.590;19.022;2023-08-06T00:21:36;24.60;;;9.82;;
27003;SDS011;14546;47.590;19.022;2023-08-06T00:24:02;16.48;;;10.57;;
27003;SDS011;14546;47.590;19.022;2023-08-06T00:26:29;16.50;;;10.18;;
27003;SDS011;14546;47.590;19.022;2023-08-06T00:28:56;18.50;;;11.13;;
27003;SDS011;14546;47.590;19.022;2023-08-06T00:31:22;14.88;;;10.65;;
27003;SDS011;14546;47.590;19.022;2023-08-06T00:33:48;16.85;;;10.35;;
27003;SDS011;14546;47.590;19.022;2023-08-06T00:36:14;20.58;;;11.68;;
27003;SDS011;14546;47.590;19.022;2023-08-06T00:38:40;17.55;;;10.80;;
27003;SDS011;14546;47.590;19.022;2023-08-06T00:41:07;21.45;;;10.77;;
27003;SDS011;14546;47.590;19.022;2023-08-06T00:43:33;20.13;;;10.85;;
27003;SDS011;14546;47.590;19.022;2023-08-06T00:45:59;13.27;;;10.43;;
27003;SDS011;14546;47.590;19.022;2023-08-06T00:48:26;18.35;;;11.50;;
27003;SDS011;14546;47.590;19.022;2023-08-06T00:50:52;16.52;;;11.50;;
27003;SDS011;14546;47.590;19.022;2023-08-06T00:53:18;16.90;;;12.18;;
27003;SDS011;14546;47.590;19.022;2023-08-06T00:55:45;18.23;;;12.60;;
27003;SDS011;14546;47.590;19.022;2023-08-06T00:58:12;16.70;;;11.90;;
27003;SDS011;14546;47.590;19.022;2023-08-06T01:00:39;18.75;;;10.68;;
27003;SDS011;14546;47.590;19.022;2023-08-06T01:03:05;15.75;;;11.70;;
27003;SDS011;14546;47.590;19.022;2023-08-06T01:05:31;17.58;;;11.73;;
27003;SDS011;14546;47.590;19.022;2023-08-06T01:10:29;15.27;;;11.65;;
27003;SDS011;14546;47.590;19.022;2023-08-06T01:15:47;14.43;;;10.45;;
27003;SDS011;14546;47.590;19.022;2023-08-06T01:18:15;19.52;;;10.80;;
27003;SDS011;14546;47.590;19.022;2023-08-06T01:20:42;15.65;;;10.75;;
27003;SDS011;14546;47.590;19.022;2023-08-06T01:23:08;19.77;;;11.60;;
27003;SDS011;14546;47.590;19.022;2023-08-06T01:26:19;20.70;;;12.25;;
27003;SDS011;14546;47.590;19.022;2023-08-06T01:30:56;21.20;;;12.60;;
27003;SDS011;14546;47.590;19.022;2023-08-06T01:33:23;18.80;;;12.68;;
27003;SDS011;14546;47.590;19.022;2023-08-06T01:35:50;26.80;;;12.55;;
27003;SDS011;14546;47.590;19.022;2023-08-06T01:38:17;18.27;;;11.90;;
27003;SDS011;14546;47.590;19.022;2023-08-06T01:40:43;16.90;;;12.02;;
27003;SDS011;14546;47.590;19.022;2023-08-06T01:43:09;18.38;;;11.13;;
27003;SDS011;14546;47.590;19.022;2023-08-06T01:45:36;19.58;;;11.55;;
27003;SDS011;14546;47.590;19.022;2023-08-06T01:48:03;16.20;;;11.43;;
27003;SDS011;14546;47.590;19.022;2023-08-06T01:50:30;13.68;;;10.93;;
27003;SDS011;14546;47.590;19.022;2023-08-06T01:52:56;16.05;;;10.32;;
27003;SDS011;14546;47.590;19.022;2023-08-06T01:55:22;17.00;;;11.88;;
27003;SDS011;14546;47.590;19.022;2023-08-06T01:57:48;17.55;;;11.70;;
27003;SDS011;14546;47.590;19.022;2023-08-06T02:00:14;21.45;;;11.50;;
27003;SDS011;14546;47.590;19.022;2023-08-06T02:02:40;19.60;;;11.57;;
27003;SDS011;14546;47.590;19.022;2023-08-06T02:05:07;17.42;;;11.55;;
27003;SDS011;14546;47.590;19.022;2023-08-06T02:07:33;22.67;;;12.82;;
27003;SDS011;14546;47.590;19.022;2023-08-06T02:09:59;19.58;;;12.93;;
27003;SDS011;14546;47.590;19.022;2023-08-06T02:12:25;23.77;;;12.73;;
27003;SDS011;14546;47.590;19.022;2023-08-06T02:14:51;19.27;;;12.20;;
27003;SDS011;14546;47.590;19.022;2023-08-06T02:17:18;15.43;;;11.43;;
27003;SDS011;14546;47.590;19.022;2023-08-06T02:19:45;15.98;;;10.50;;
27003;SDS011;14546;47.590;19.022;2023-08-06T02:22:12;15.23;;;9.00;;
27003;SDS011;14546;47.590;19.022;2023-08-06T02:24:39;14.38;;;8.90;;
27003;SDS011;14546;47.590;19.022;2023-08-06T02:27:05;10.05;;;7.68;;
27003;SDS011;14546;47.590;19.022;2023-08-06T02:29:31;14.10;;;7.53;;
27003;SDS011;14546;47.590;19.022;2023-08-06T02:31:57;13.07;;;7.90;;
27003;SDS011;14546;47.590;19.022;2023-08-06T02:34:26;12.50;;;7.70;;
27003;SDS011;14546;47.590;19.022;2023-08-06T02:36:52;11.48;;;8.13;;
27003;SDS011;14546;47.590;19.022;2023-08-06T02:39:18;9.88;;;7.22;;
27003;SDS011;14546;47.590;19.022;2023-08-06T02:41:45;11.20;;;7.10;;
27003;SDS011;14546;47.590;19.022;2023-08-06T02:44:12;7.90;;;6.63;;
27003;SDS011;14546;47.590;19.022;2023-08-06T02:46:38;10.27;;;7.13;;
27003;SDS011;14546;47.590;19.022;2023-08-06T02:49:05;8.40;;;6.03;;
27003;SDS011;14546;47.590;19.022;2023-08-06T02:51:32;10.02;;;6.70;;
27003;SDS011;14546;47.590;19.022;2023-08-06T02:53:58;9.40;;;6.68;;
27003;SDS011;14546;47.590;19.022;2023-08-06T02:56:24;9.48;;;5.93;;
27003;SDS011;14546;47.590;19.022;2023-08-06T02:58:51;10.00;;;6.00;;
27003;SDS011;14546;47.590;19.022;2023-08-06T03:01:18;9.70;;;5.70;;
27003;SDS011;14546;47.590;19.022;2023-08-06T03:03:45;8.88;;;5.72;;
27003;SDS011;14546;47.590;19.022;2023-08-06T03:06:12;8.32;;;5.82;;
27003;SDS011;14546;47.590;19.022;2023-08-06T03:08:38;10.75;;;5.90;;
27003;SDS011;14546;47.590;19.022;2023-08-06T03:11:05;11.68;;;6.07;;
27003;SDS011;14546;47.590;19.022;2023-08-06T03:13:31;10.70;;;6.28;;
27003;SDS011;14546;47.590;19.022;2023-08-06T03:15:59;9.50;;;6.07;;
27003;SDS011;14546;47.590;19.022;2023-08-06T03:18:26;11.18;;;5.47;;
27003;SDS011;14546;47.590;19.022;2023-08-06T03:20:52;9.25;;;5.60;;
27003;SDS011;14546;47.590;19.022;2023-08-06T03:23:19;10.80;;;5.55;;
27003;SDS011;14546;47.590;19.022;2023-08-06T03:25:46;9.82;;;5.85;;
27003;SDS011;14546;47.590;19.022;2023-08-06T03:28:12;12.70;;;5.93;;
27003;SDS011;14546;47.590;19.022;2023-08-06T03:30:39;7.20;;;5.55;;
27003;SDS011;14546;47.590;19.022;2023-08-06T03:33:05;7.38;;;5.70;;
27003;SDS011;14546;47.590;19.022;2023-08-06T03:35:31;8.25;;;6.07;;
27003;SDS011;14546;47.590;19.022;2023-08-06T03:37:58;12.18;;;5.72;;
27003;SDS011;14546;47.590;19.022;2023-08-06T03:40:24;10.30;;;6.13;;
27003;SDS011;14546;47.590;19.022;2023-08-06T03:42:50;6.40;;;5.45;;
27003;SDS011;14546;47.590;19.022;2023-08-06T03:45:16;6.32;;;4.78;;
27003;SDS011;14546;47.590;19.022;2023-08-06T03:47:43;5.85;;;4.63;;
27003;SDS011;14546;47.590;19.022;2023-08-06T03:50:09;12.00;;;5.22;;
27003;SDS011;14546;47.590;19.022;2023-08-06T03:52:36;12.52;;;5.50;;
27003;SDS011;14546;47.590;19.022;2023-08-06T03:55:03;9.68;;;5.43;;
27003;SDS011;14546;47.590;19.022;2023-08-06T03:57:29;8.13;;;4.82;;
27003;SDS011;14546;47.590;19.022;2023-08-06T03:59:55;10.70;;;5.15;;
27003;SDS011;14546;47.590;19.022;2023-08-06T04:02:21;10.50;;;5.45;;
27003;SDS011;14546;47.590;19.022;2023-08-06T04:04:48;9.13;;;5.10;;
27003;SDS011;14546;47.590;19.022;2023-08-06T04:07:15;5.93;;;5.03;;
27003;SDS011;14546;47.590;19.022;2023-08-06T04:09:55;13.82;;;5.32;;
27003;SDS011;14546;47.590;19.022;2023-08-06T04:12:21;5.97;;;5.00;;
27003;SDS011;14546;47.590;19.022;2023-08-06T04:14:49;7.88;;;5.65;;
27003;SDS011;14546;47.590;19.022;2023-08-06T04:17:16;9.75;;;6.25;;
27003;SDS011;14546;47.590;19.022;2023-08-06T04:19:46;9.45;;;6.70;;
27003;SDS011;14546;47.590;19.022;2023-08-06T04:22:13;11.43;;;7.80;;
27003;SDS011;14546;47.590;19.022;2023-08-06T04:24:40;15.32;;;7.60;;
27003;SDS011;14546;47.590;19.022;2023-08-06T04:27:07;11.52;;;7.50;;
27003;SDS011;14546;47.590;19.022;2023-08-06T04:29:33;10.70;;;6.78;;
27003;SDS011;14546;47.590;19.022;2023-08-06T04:31:59;10.05;;;5.57;;
27003;SDS011;14546;47.590;19.022;2023-08-06T04:34:25;7.15;;;3.70;;
27003;SDS011;14546;47.590;19.022;2023-08-06T04:36:51;4.97;;;3.88;;
27003;SDS011;14546;47.590;19.022;2023-08-06T04:39:18;6.25;;;1.85;;
27003;SDS011;14546;47.590;19.022;2023-08-06T04:41:45;5.45;;;1.50;;
27003;SDS011;14546;47.590;19.022;2023-08-06T04:44:11;2.88;;;1.60;;
27003;SDS011;14546;47.590;19.022;2023-08-06T04:46:37;2.95;;;1.70;;
27003;SDS011;14546;47.590;19.022;2023-08-06T04:49:03;3.72;;;1.65;;
27003;SDS011;14546;47.590;19.022;2023-08-06T04:51:30;3.55;;;1.50;;
27003;SDS011;14546;47.590;19.022;2023-08-06T04:53:56;1.67;;;1.23;;
27003;SDS011;14546;47.590;19.022;2023-08-06T04:56:23;5.72;;;1.38;;
27003;SDS011;14546;47.590;19.022;2023-08-06T04:58:49;2.97;;;1.30;;
27003;SDS011;14546;47.590;19.022;2023-08-06T05:01:15;2.45;;;1.20;;
27003;SDS011;14546;47.590;19.022;2023-08-06T05:03:43;1.40;;;0.70;;
27003;SDS011;14546;47.590;19.022;2023-08-06T05:06:08;1.23;;;0.68;;
27003;SDS011;14546;47.590;19.022;2023-08-06T05:08:36;1.13;;;0.60;;
27003;SDS011;14546;47.590;19.022;2023-08-06T05:11:03;2.83;;;0.60;;
27003;SDS011;14546;47.590;19.022;2023-08-06T05:13:28;1.20;;;0.70;;
27003;SDS011;14546;47.590;19.022;2023-08-06T05:15:55;1.05;;;0.68;;
27003;SDS011;14546;47.590;19.022;2023-08-06T05:18:22;3.60;;;0.70;;
27003;SDS011;14546;47.590;19.022;2023-08-06T05:20:49;5.65;;;0.70;;
27003;SDS011;14546;47.590;19.022;2023-08-06T05:23:16;1.90;;;0.57;;
27003;SDS011;14546;47.590;19.022;2023-08-06T05:25:42;1.17;;;0.50;;
27003;SDS011;14546;47.590;19.022;2023-08-06T05:28:08;1.13;;;0.50;;
27003;SDS011;14546;47.590;19.022;2023-08-06T05:30:34;0.80;;;0.50;;
27003;SDS011;14546;47.590;19.022;2023-08-06T05:33:02;2.28;;;0.40;;
27003;SDS011;14546;47.590;19.022;2023-08-06T05:35:29;7.32;;;0.60;;
27003;SDS011;14546;47.590;19.022;2023-08-06T05:37:55;1.17;;;0.30;;
27003;SDS011;14546;47.590;19.022;2023-08-06T05:40:21;0.55;;;0.45;;
27003;SDS011;14546;47.590;19.022;2023-08-06T05:42:47;0.28;;;0.22;;
27003;SDS011;14546;47.590;19.022;2023-08-06T05:45:13;0.22;;;0.22;;
27003;SDS011;14546;47.590;19.022;2023-08-06T05:47:40;0.77;;;0.20;;
27003;SDS011;14546;47.590;19.022;2023-08-06T05:50:06;0.77;;;0.38;;
27003;SDS011;14546;47.590;19.022;2023-08-06T05:52:33;0.63;;;0.28;;
27003;SDS011;14546;47.590;19.022;2023-08-06T05:54:59;2.30;;;0.10;;
27003;SDS011;14546;47.590;19.022;2023-08-06T05:57:25;0.20;;;0.20;;
27003;SDS011;14546;47.590;19.022;2023-08-06T05:59:52;1.75;;;0.20;;
27003;SDS011;14546;47.590;19.022;2023-08-06T06:02:18;1.83;;;0.20;;
27003;SDS011;14546;47.590;19.022;2023-08-06T06:04:44;1.88;;;0.20;;
27003;SDS011;14546;47.590;19.022;2023-08-06T06:07:12;1.63;;;0.15;;
27003;SDS011;14546;47.590;19.022;2023-08-06T06:09:40;4.72;;;0.30;;
27003;SDS011;14546;47.590;19.022;2023-08-06T06:12:06;1.42;;;0.20;;
27003;SDS011;14546;47.590;19.022;2023-08-06T06:14:32;0.17;;;0.17;;
27003;SDS011;14546;47.590;19.022;2023-08-06T06:16:59;1.92;;;0.30;;
27003;SDS011;14546;47.590;19.022;2023-08-06T06:19:25;2.15;;;0.20;;
27003;SDS011;14546;47.590;19.022;2023-08-06T06:21:51;2.30;;;0.20;;
27003;SDS011;14546;47.590;19.022;2023-08-06T06:24:19;2.47;;;0.30;;
27003;SDS011;14546;47.590;19.022;2023-08-06T06:26:45;0.95;;;0.30;;
27003;SDS011;14546;47.590;19.022;2023-08-06T06:29:11;2.13;;;0.30;;
27003;SDS011;14546;47.590;19.022;2023-08-06T06:31:38;2.00;;;0.28;;
27003;SDS011;14546;47.590;19.022;2023-08-06T06:34:04;0.57;;;0.30;;
27003;SDS011;14546;47.590;19.022;2023-08-06T06:36:31;0.38;;;0.20;;
27003;SDS011;14546;47.590;19.022;2023-08-06T06:38:57;0.20;;;0.20;;
27003;SDS011;14546;47.590;19.022;2023-08-06T06:41:23;0.35;;;0.32;;
27003;SDS011;14546;47.590;19.022;2023-08-06T06:43:50;0.77;;;0.32;;
27003;SDS011;14546;47.590;19.022;2023-08-06T06:46:16;0.82;;;0.40;;
27003;SDS011;14546;47.590;19.022;2023-08-06T06:48:42;1.20;;;0.57;;
27003;SDS011;14546;47.590;19.022;2023-08-06T06:51:08;0.30;;;0.30;;
27003;SDS011;14546;47.590;19.022;2023-08-06T06:53:34;0.43;;;0.30;;
27003;SDS011;14546;47.590;19.022;2023-08-06T06:56:03;2.65;;;0.50;;
27003;SDS011;14546;47.590;19.022;2023-08-06T06:58:30;1.63;;;0.50;;
27003;SDS011;14546;47.590;19.022;2023-08-06T07:00:57;0.63;;;0.50;;
27003;SDS011;14546;47.590;19.022;2023-08-06T07:03:24;0.40;;;0.40;;
27003;SDS011;14546;47.590;19.022;2023-08-06T07:05:51;0.38;;;0.38;;
27003;SDS011;14546;47.590;19.022;2023-08-06T07:08:17;1.80;;;0.60;;
27003;SDS011;14546;47.590;19.022;2023-08-06T07:10:43;0.40;;;0.40;;
27003;SDS011;14546;47.590;19.022;2023-08-06T07:13:10;2.20;;;0.50;;
27003;SDS011;14546;47.590;19.022;2023-08-06T07:15:37;0.57;;;0.50;;
27003;SDS011;14546;47.590;19.022;2023-08-06T07:18:03;1.17;;;0.30;;
27003;SDS011;14546;47.590;19.022;2023-08-06T07:20:29;0.32;;;0.30;;
27003;SDS011;14546;47.590;19.022;2023-08-06T07:22:57;0.25;;;0.22;;
27003;SDS011;14546;47.590;19.022;2023-08-06T07:25:23;1.23;;;0.30;;
27003;SDS011;14546;47.590;19.022;2023-08-06T07:27:50;1.92;;;0.40;;
27003;SDS011;14546;47.590;19.022;2023-08-06T07:30:17;0.60;;;0.30;;
27003;SDS011;14546;47.590;19.022;2023-08-06T07:32:43;0.13;;;0.13;;
27003;SDS011;14546;47.590;19.022;2023-08-06T07:35:09;1.55;;;0.68;;
27003;SDS011;14546;47.590;19.022;2023-08-06T07:37:40;1.35;;;0.20;;
27003;SDS011;14546;47.590;19.022;2023-08-06T07:40:07;0.82;;;0.10;;
27003;SDS011;14546;47.590;19.022;2023-08-06T07:42:34;0.28;;;0.20;;
27003;SDS011;14546;47.590;19.022;2023-08-06T07:45:01;3.22;;;0.32;;
27003;SDS011;14546;47.590;19.022;2023-08-06T07:47:27;0.40;;;0.40;;
27003;SDS011;14546;47.590;19.022;2023-08-06T07:49:54;0.10;;;0.10;;
27003;SDS011;14546;47.590;19.022;2023-08-06T07:52:21;2.03;;;0.30;;
27003;SDS011;14546;47.590;19.022;2023-08-06T07:54:47;1.55;;;0.50;;
27003;SDS011;14546;47.590;19.022;2023-08-06T07:57:13;4.30;;;0.17;;
27003;SDS011;14546;47.590;19.022;2023-08-06T07:59:41;1.35;;;0.30;;
27003;SDS011;14546;47.590;19.022;2023-08-06T08:02:08;2.63;;;0.28;;
27003;SDS011;14546;47.590;19.022;2023-08-06T08:04:35;0.80;;;0.20;;
27003;SDS011;14546;47.590;19.022;2023-08-06T08:07:01;0.20;;;0.20;;
27003;SDS011;14546;47.590;19.022;2023-08-06T08:09:28;0.35;;;0.20;;
27003;SDS011;14546;47.590;19.022;2023-08-06T08:11:55;0.68;;;0.30;;
27003;SDS011;14546;47.590;19.022;2023-08-06T08:14:21;0.55;;;0.20;;
27003;SDS011;14546;47.590;19.022;2023-08-06T08:16:49;0.20;;;0.20;;
27003;SDS011;14546;47.590;19.022;2023-08-06T08:19:15;1.33;;;0.20;;
27003;SDS011;14546;47.590;19.022;2023-08-06T08:21:41;0.47;;;0.20;;
27003;SDS011;14546;47.590;19.022;2023-08-06T08:24:07;0.68;;;0.10;;
27003;SDS011;14546;47.590;19.022;2023-08-06T08:26:33;0.35;;;0.10;;
27003;SDS011;14546;47.590;19.022;2023-08-06T08:29:00;0.75;;;0.28;;
27003;SDS011;14546;47.590;19.022;2023-08-06T08:31:27;0.10;;;0.10;;
27003;SDS011;14546;47.590;19.022;2023-08-06T08:33:54;0.20;;;0.20;;
27003;SDS011;14546;47.590;19.022;2023-08-06T08:36:20;0.15;;;0.15;;
27003;SDS011;14546;47.590;19.022;2023-08-06T08:38:46;0.63;;;0.30;;
27003;SDS011;14546;47.590;19.022;2023-08-06T08:41:12;0.28;;;0.13;;
27003;SDS011;14546;47.590;19.022;2023-08-06T08:43:40;0.20;;;0.20;;
27003;SDS011;14546;47.590;19.022;2023-08-06T08:46:07;2.28;;;0.30;;
27003;SDS011;14546;47.590;19.022;2023-08-06T08:48:35;0.20;;;0.20;;
27003;SDS011;14546;47.590;19.022;2023-08-06T08:51:02;1.00;;;0.30;;
27003;SDS011;14546;47.590;19.022;2023-08-06T08:53:29;1.60;;;0.28;;
27003;SDS011;14546;47.590;19.022;2023-08-06T08:55:56;0.20;;;0.20;;
27003;SDS011;14546;47.590;19.022;2023-08-06T08:58:23;0.22;;;0.22;;
27003;SDS011;14546;47.590;19.022;2023-08-06T09:00:49;0.52;;;0.30;;
27003;SDS011;14546;47.590;19.022;2023-08-06T09:03:16;2.08;;;0.30;;
27003;SDS011;14546;47.590;19.022;2023-08-06T09:05:43;2.45;;;0.30;;
27003;SDS011;14546;47.590;19.022;2023-08-06T09:08:11;0.30;;;0.28;;
27003;SDS011;14546;47.590;19.022;2023-08-06T09:10:39;0.20;;;0.20;;
27003;SDS011;14546;47.590;19.022;2023-08-06T09:13:05;0.70;;;0.40;;
27003;SDS011;14546;47.590;19.022;2023-08-06T09:15:32;0.20;;;0.20;;
27003;SDS011;14546;47.590;19.022;2023-08-06T09:17:59;1.30;;;0.40;;
27003;SDS011;14546;47.590;19.022;2023-08-06T09:20:25;0.43;;;0.32;;
27003;SDS011;14546;47.590;19.022;2023-08-06T09:22:54;0.90;;;0.40;;
27003;SDS011;14546;47.590;19.022;2023-08-06T09:25:23;1.85;;;0.40;;
27003;SDS011;14546;47.590;19.022;2023-08-06T09:27:51;0.85;;;0.50;;
27003;SDS011;14546;47.590;19.022;2023-08-06T09:30:28;0.38;;;0.38;;
27003;SDS011;14546;47.590;19.022;2023-08-06T09:32:57;0.45;;;0.28;;
27003;SDS011;14546;47.590;19.022;2023-08-06T09:35:24;0.30;;;0.30;;
27003;SDS011;14546;47.590;19.022;2023-08-06T09:37:51;0.30;;;0.30;;
27003;SDS011;14546;47.590;19.022;2023-08-06T09:40:32;0.20;;;0.20;;
27003;SDS011;14546;47.590;19.022;2023-08-06T09:42:59;0.95;;;0.38;;
27003;SDS011;14546;47.590;19.022;2023-08-06T09:45:28;0.93;;;0.70;;
27003;SDS011;14546;47.590;19.022;2023-08-06T09:47:57;0.43;;;0.40;;
27003;SDS011;14546;47.590;19.022;2023-08-06T09:50:28;0.77;;;0.40;;
27003;SDS011;14546;47.590;19.022;2023-08-06T09:52:55;4.32;;;0.57;;
27003;SDS011;14546;47.590;19.022;2023-08-06T09:55:22;0.45;;;0.40;;
27003;SDS011;14546;47.590;19.022;2023-08-06T09:57:49;2.72;;;0.50;;
27003;SDS011;14546;47.590;19.022;2023-08-06T10:00:16;0.50;;;0.50;;
27003;SDS011;14546;47.590;19.022;2023-08-06T10:02:43;0.95;;;0.50;;
27003;SDS011;14546;47.590;19.022;2023-08-06T10:05:10;0.50;;;0.50;;
27003;SDS011;14546;47.590;19.022;2023-08-06T10:07:37;0.52;;;0.52;;
27003;SDS011;14546;47.590;19.022;2023-08-06T10:10:07;0.50;;;0.50;;
27003;SDS011;14546;47.590;19.022;2023-08-06T10:12:37;0.40;;;0.40;;
27003;SDS011;14546;47.590;19.022;2023-08-06T10:15:06;2.13;;;0.70;;
27003;SDS011;14546;47.590;19.022;2023-08-06T10:17:34;0.40;;;0.40;;
27003;SDS011;14546;47.590;19.022;2023-08-06T10:20:02;1.90;;;0.65;;
27003;SDS011;14546;47.590;19.022;2023-08-06T10:22:29;0.55;;;0.50;;
27003;SDS011;14546;47.590;19.022;2023-08-06T10:24:59;0.80;;;0.60;;
27003;SDS011;14546;47.590;19.022;2023-08-06T10:27:30;2.92;;;0.70;;
27003;SDS011;14546;47.590;19.022;2023-08-06T10:33:00;0.38;;;0.38;;
27003;SDS011;14546;47.590;19.022;2023-08-06T10:35:36;2.80;;;0.63;;
27003;SDS011;14546;47.590;19.022;2023-08-06T10:43:25;4.17;;;1.07;;
27003;SDS011;14546;47.590;19.022;2023-08-06T10:45:52;0.95;;;0.40;;
27003;SDS011;14546;47.590;19.022;2023-08-06T10:51:04;1.15;;;0.57;;
27003;SDS011;14546;47.590;19.022;2023-08-06T10:53:31;0.63;;;0.40;;
27003;SDS011;14546;47.590;19.022;2023-08-06T10:55:58;0.77;;;0.60;;
27003;SDS011;14546;47.590;19.022;2023-08-06T10:58:25;1.45;;;0.50;;
27003;SDS011;14546;47.590;19.022;2023-08-06T11:00:51;1.23;;;0.60;;
27003;SDS011;14546;47.590;19.022;2023-08-06T11:03:17;0.40;;;0.40;;
27003;SDS011;14546;47.590;19.022;2023-08-06T11:05:50;0.47;;;0.47;;
27003;SDS011;14546;47.590;19.022;2023-08-06T11:08:28;2.33;;;0.50;;
27003;SDS011;14546;47.590;19.022;2023-08-06T11:10:54;0.40;;;0.40;;
27003;SDS011;14546;47.590;19.022;2023-08-06T11:13:21;0.47;;;0.47;;
27003;SDS011;14546;47.590;19.022;2023-08-06T11:15:47;0.60;;;0.60;;
27003;SDS011;14546;47.590;19.022;2023-08-06T11:18:13;1.00;;;0.40;;
27003;SDS011;14546;47.590;19.022;2023-08-06T11:20:39;1.45;;;0.40;;
27003;SDS011;14546;47.590;19.022;2023-08-06T11:23:05;1.05;;;0.40;;
27003;SDS011;14546;47.590;19.022;2023-08-06T11:25:36;0.63;;;0.55;;
27003;SDS011;14546;47.590;19.022;2023-08-06T11:28:03;0.70;;;0.60;;
27003;SDS011;14546;47.590;19.022;2023-08-06T11:30:29;4.75;;;0.50;;
27003;SDS011;14546;47.590;19.022;2023-08-06T11:32:55;0.45;;;0.45;;
27003;SDS011;14546;47.590;19.022;2023-08-06T11:35:22;1.30;;;0.70;;
27003;SDS011;14546;47.590;19.022;2023-08-06T11:37:48;0.52;;;0.52;;
27003;SDS011;14546;47.590;19.022;2023-08-06T11:40:14;1.05;;;0.68;;
27003;SDS011;14546;47.590;19.022;2023-08-06T11:42:40;0.57;;;0.57;;
27003;SDS011;14546;47.590;19.022;2023-08-06T11:45:07;1.95;;;0.60;;
27003;SDS011;14546;47.590;19.022;2023-08-06T11:47:39;1.10;;;0.85;;
27003;SDS011;14546;47.590;19.022;2023-08-06T11:50:06;1.00;;;0.63;;
27003;SDS011;14546;47.590;19.022;2023-08-06T11:52:32;2.58;;;0.77;;
27003;SDS011;14546;47.590;19.022;2023-08-06T11:55:05;1.17;;;0.70;;
27003;SDS011;14546;47.590;19.022;2023-08-06T11:57:33;1.25;;;0.60;;
27003;SDS011;14546;47.590;19.022;2023-08-06T12:00:03;0.60;;;0.60;;
27003;SDS011;14546;47.590;19.022;2023-08-06T12:02:32;1.30;;;0.80;;
27003;SDS011;14546;47.590;19.022;2023-08-06T12:07:38;1.15;;;0.55;;
27003;SDS011;14546;47.590;19.022;2023-08-06T12:10:09;1.67;;;0.80;;
27003;SDS011;14546;47.590;19.022;2023-08-06T12:12:36;1.23;;;0.80;;
27003;SDS011;14546;47.590;19.022;2023-08-06T12:15:03;0.70;;;0.60;;
27003;SDS011;14546;47.590;19.022;2023-08-06T12:17:29;0.65;;;0.65;;
27003;SDS011;14546;47.590;19.022;2023-08-06T12:19:55;0.90;;;0.70;;
27003;SDS011;14546;47.590;19.022;2023-08-06T12:22:21;1.55;;;0.88;;
27003;SDS011;14546;47.590;19.022;2023-08-06T12:24:47;0.75;;;0.73;;
27003;SDS011;14546;47.590;19.022;2023-08-06T12:27:14;1.63;;;0.80;;
27003;SDS011;14546;47.590;19.022;2023-08-06T12:29:43;0.80;;;0.80;;
27003;SDS011;14546;47.590;19.022;2023-08-06T12:32:10;2.42;;;1.00;;
27003;SDS011;14546;47.590;19.022;2023-08-06T12:34:37;4.25;;;1.15;;
27003;SDS011;14546;47.590;19.022;2023-08-06T12:37:03;1.70;;;0.98;;
27003;SDS011;14546;47.590;19.022;2023-08-06T12:39:30;1.25;;;1.05;;
27003;SDS011;14546;47.590;19.022;2023-08-06T12:41:56;1.50;;;1.17;;
27003;SDS011;14546;47.590;19.022;2023-08-06T12:44:23;1.77;;;0.98;;
27003;SDS011;14546;47.590;19.022;2023-08-06T12:46:50;1.48;;;1.00;;
27003;SDS011;14546;47.590;19.022;2023-08-06T12:49:16;1.55;;;1.20;;
27003;SDS011;14546;47.590;19.022;2023-08-06T12:51:43;1.30;;;1.20;;
27003;SDS011;14546;47.590;19.022;2023-08-06T12:54:09;1.50;;;1.40;;
27003;SDS011;14546;47.590;19.022;2023-08-06T12:56:35;1.85;;;1.25;;
27003;SDS011;14546;47.590;19.022;2023-08-06T12:59:01;1.73;;;1.60;;
27003;SDS011;14546;47.590;19.022;2023-08-06T13:01:27;1.70;;;1.55;;
27003;SDS011;14546;47.590;19.022;2023-08-06T13:03:53;1.85;;;1.50;;
27003;SDS011;14546;47.590;19.022;2023-08-06T13:06:19;2.00;;;1.80;;
27003;SDS011;14546;47.590;19.022;2023-08-06T13:08:45;2.13;;;1.90;;
27003;SDS011;14546;47.590;19.022;2023-08-06T13:11:11;1.95;;;1.58;;
27003;SDS011;14546;47.590;19.022;2023-08-06T13:13:38;2.28;;;1.85;;
27003;SDS011;14546;47.590;19.022;2023-08-06T13:16:04;5.20;;;2.28;;
27003;SDS011;14546;47.590;19.022;2023-08-06T13:18:30;2.75;;;2.00;;
27003;SDS011;14546;47.590;19.022;2023-08-06T13:20:56;3.28;;;2.50;;
27003;SDS011;14546;47.590;19.022;2023-08-06T13:23:23;2.55;;;2.35;;
27003;SDS011;14546;47.590;19.022;2023-08-06T13:25:49;3.75;;;2.33;;
27003;SDS011;14546;47.590;19.022;2023-08-06T13:28:15;1.80;;;1.70;;
27003;SDS011;14546;47.590;19.022;2023-08-06T13:30:41;4.07;;;1.90;;
27003;SDS011;14546;47.590;19.022;2023-08-06T13:33:08;2.30;;;2.10;;
27003;SDS011;14546;47.590;19.022;2023-08-06T13:35:34;2.30;;;2.10;;
27003;SDS011;14546;47.590;19.022;2023-08-06T13:38:00;2.90;;;2.42;;
27003;SDS011;14546;47.590;19.022;2023-08-06T13:40:33;30.67;;;2.97;;
27003;SDS011;14546;47.590;19.022;2023-08-06T13:43:00;3.80;;;2.17;;
27003;SDS011;14546;47.590;19.022;2023-08-06T13:45:26;3.55;;;2.40;;
27003;SDS011;14546;47.590;19.022;2023-08-06T13:47:55;2.20;;;2.08;;
27003;SDS011;14546;47.590;19.022;2023-08-06T13:50:21;2.95;;;2.40;;
27003;SDS011;14546;47.590;19.022;2023-08-06T13:52:50;4.40;;;2.40;;
27003;SDS011;14546;47.590;19.022;2023-08-06T13:55:18;3.95;;;2.67;;
27003;SDS011;14546;47.590;19.022;2023-08-06T13:57:44;4.00;;;2.33;;
27003;SDS011;14546;47.590;19.022;2023-08-06T14:00:10;4.13;;;2.53;;
27003;SDS011;14546;47.590;19.022;2023-08-06T14:02:36;2.95;;;2.65;;
27003;SDS011;14546;47.590;19.022;2023-08-06T14:05:03;3.00;;;2.70;;
27003;SDS011;14546;47.590;19.022;2023-08-06T14:07:30;4.72;;;3.15;;
27003;SDS011;14546;47.590;19.022;2023-08-06T14:09:56;6.10;;;2.80;;
27003;SDS011;14546;47.590;19.022;2023-08-06T14:12:23;3.70;;;2.20;;
27003;SDS011;14546;47.590;19.022;2023-08-06T14:14:49;3.50;;;3.00;;
27003;SDS011;14546;47.590;19.022;2023-08-06T14:17:15;6.55;;;2.85;;
27003;SDS011;14546;47.590;19.022;2023-08-06T14:19:41;2.88;;;2.50;;
27003;SDS011;14546;47.590;19.022;2023-08-06T14:22:07;3.28;;;2.58;;
27003;SDS011;14546;47.590;19.022;2023-08-06T14:24:33;3.25;;;2.10;;
27003;SDS011;14546;47.590;19.022;2023-08-06T14:26:59;6.72;;;2.38;;
27003;SDS011;14546;47.590;19.022;2023-08-06T14:29:26;2.03;;;1.83;;
27003;SDS011;14546;47.590;19.022;2023-08-06T14:31:52;3.50;;;1.88;;
27003;SDS011;14546;47.590;19.022;2023-08-06T14:34:18;3.58;;;1.90;;
27003;SDS011;14546;47.590;19.022;2023-08-06T14:36:45;1.90;;;1.73;;
27003;SDS011;14546;47.590;19.022;2023-08-06T14:39:12;2.97;;;1.80;;
27003;SDS011;14546;47.590;19.022;2023-08-06T14:41:38;2.30;;;2.10;;
27003;SDS011;14546;47.590;19.022;2023-08-06T14:44:05;3.08;;;2.13;;
27003;SDS011;14546;47.590;19.022;2023-08-06T14:46:32;2.67;;;2.15;;
27003;SDS011;14546;47.590;19.022;2023-08-06T14:48:58;5.65;;;1.88;;
27003;SDS011;14546;47.590;19.022;2023-08-06T14:51:25;2.47;;;1.92;;